Time;durP1;ratioP1;P1;durP2;ratioP2;P2;SDS_P1;SDS_P2;PMS_P1;PMS_P2;Temp;Humidity;BMP_temperature;BMP_pressure;BME280_temperature;BME280_humidity;BME280_pressure;Samples;Min_cycle;Max_cycle;Signal;HPM_P1;HPM_P2
2023/05/09 00:01:34;;;;;;;7.50;6.00;;;;;;;3.49;71.87;101884.06;105664;276;39268;-72
2023/05/09 00:04:16;;;;;;;8.70;6.00;;;;;;;3.46;72.09;101885.05;105364;276;38234;-73
2023/05/09 00:07:00;;;;;;;10.00;6.90;;;;;;;3.43;72.27;101879.98;106156;276;38642;-73
2023/05/09 00:09:36;;;;;;;9.80;6.70;;;;;;;3.41;72.28;101879.62;105664;277;38293;-72
2023/05/09 00:12:13;;;;;;;6.90;5.90;;;;;;;3.38;72.22;101876.48;105704;276;38233;-71
2023/05/09 00:14:50;;;;;;;9.70;6.10;;;;;;;3.34;72.31;101875.90;105392;277;38304;-71
2023/05/09 00:17:30;;;;;;;9.10;6.50;;;;;;;3.30;72.43;101872.39;105677;276;38307;-72
2023/05/09 00:20:10;;;;;;;8.00;5.80;;;;;;;3.27;72.59;101873.19;105665;276;37229;-72
2023/05/09 00:22:48;;;;;;;8.10;5.80;;;;;;;3.25;72.70;101871.27;105403;277;38382;-72
2023/05/09 00:25:27;;;;;;;11.10;6.40;;;;;;;3.24;72.84;101865.23;105719;276;38311;-73
2023/05/09 00:28:28;;;;;;;10.20;7.00;;;;;;;3.23;72.95;101864.84;105437;278;38522;-72
2023/05/09 00:31:05;;;;;;;7.60;5.80;;;;;;;3.17;73.12;101864.75;105685;276;38272;-71
2023/05/09 00:33:40;;;;;;;7.60;6.00;;;;;;;3.14;73.21;101867.47;105446;278;38477;-71
2023/05/09 00:36:15;;;;;;;7.60;5.80;;;;;;;3.11;73.44;101864.48;105685;276;38243;-71
2023/05/09 00:38:54;;;;;;;8.80;5.80;;;;;;;3.10;73.64;101867.05;105420;277;39444;-71
2023/05/09 00:41:30;;;;;;;8.30;5.70;;;;;;;3.09;73.80;101865.49;105670;276;38492;-72
2023/05/09 00:44:04;;;;;;;10.60;6.30;;;;;;;3.10;73.80;101862.93;105662;276;39702;-72
2023/05/09 00:46:40;;;;;;;10.30;6.70;;;;;;;3.09;73.82;101863.42;105558;276;172358;-71
2023/05/09 00:49:15;;;;;;;10.10;6.10;;;;;;;3.06;73.78;101863.54;106129;276;39436;-71
2023/05/09 00:51:51;;;;;;;9.90;5.80;;;;;;;3.00;73.70;101864.83;105369;277;39520;-71
2023/05/09 00:54:25;;;;;;;9.00;5.40;;;;;;;2.96;73.78;101865.44;105665;277;38319;-71
2023/05/09 00:57:01;;;;;;;8.80;5.70;;;;;;;2.96;73.72;101865.95;105631;276;38511;-73
2023/05/09 00:59:38;;;;;;;10.70;5.80;;;;;;;2.95;73.87;101864.73;106133;276;39430;-73
2023/05/09 01:02:18;;;;;;;9.30;6.70;;;;;;;2.94;73.82;101861.10;106115;276;39272;-72
2023/05/09 01:04:53;;;;;;;12.80;6.00;;;;;;;2.94;73.78;101862.82;105660;276;39415;-73
2023/05/09 01:07:36;;;;;;;8.90;5.80;;;;;;;2.92;73.63;101862.95;105380;276;38305;-72
2023/05/09 01:10:21;;;;;;;9.40;6.00;;;;;;;2.89;73.70;101861.70;105652;277;38490;-72
2023/05/09 01:13:03;;;;;;;7.90;6.00;;;;;;;2.85;73.86;101862.48;105406;277;38373;-72
2023/05/09 01:15:43;;;;;;;9.50;5.80;;;;;;;2.82;74.15;101862.79;105669;277;38635;-72
2023/05/09 01:18:25;;;;;;;10.50;6.30;;;;;;;2.80;74.26;101862.24;105656;277;38590;-73
2023/05/09 01:21:04;;;;;;;10.40;6.50;;;;;;;2.78;74.27;101862.36;105675;277;38456;-72
2023/05/09 01:24:34;;;;;;;9.40;6.40;;;;;;;2.74;74.46;101858.85;105633;277;38255;-72
2023/05/09 01:27:37;;;;;;;8.60;6.20;;;;;;;2.68;74.63;101862.35;105450;274;39469;-72
2023/05/09 01:30:15;;;;;;;8.70;6.20;;;;;;;2.61;74.29;101859.83;105616;277;39088;-72
2023/05/09 01:32:54;;;;;;;10.90;6.00;;;;;;;2.57;74.37;101861.30;106032;277;38501;-72
2023/05/09 01:35:31;;;;;;;9.80;6.00;;;;;;;2.56;74.47;101862.32;105677;277;37788;-72
2023/05/09 01:38:14;;;;;;;11.40;5.90;;;;;;;2.54;74.40;101862.28;105326;277;458663;-72
2023/05/09 01:40:51;;;;;;;9.00;6.70;;;;;;;2.52;74.36;101862.23;105638;277;39260;-72
2023/05/09 01:43:27;;;;;;;8.00;6.40;;;;;;;2.50;74.40;101863.58;105628;277;38717;-72
2023/05/09 01:46:05;;;;;;;7.70;6.00;;;;;;;2.46;74.33;101863.50;105670;277;39170;-72
2023/05/09 01:48:43;;;;;;;10.10;6.00;;;;;;;2.43;74.50;101865.52;105643;277;38268;-72
2023/05/09 01:51:18;;;;;;;9.90;6.30;;;;;;;2.40;74.48;101867.52;105665;277;39446;-74
2023/05/09 01:53:55;;;;;;;8.50;6.10;;;;;;;2.38;74.57;101868.85;105669;277;38233;-74
2023/05/09 01:56:37;;;;;;;9.10;6.60;;;;;;;2.36;74.65;101863.14;105418;277;908713;-73
2023/05/09 01:59:25;;;;;;;10.70;6.80;;;;;;;2.33;74.64;101863.08;105673;277;38855;-73
2023/05/09 02:02:09;;;;;;;12.40;6.20;;;;;;;2.29;74.70;101862.83;105654;277;38286;-74
2023/05/09 02:04:59;;;;;;;11.20;6.50;;;;;;;2.24;74.61;101858.41;105368;277;38403;-74
2023/05/09 02:07:34;;;;;;;11.80;6.10;;;;;;;2.24;74.73;101860.32;105372;277;38476;-73
2023/05/09 02:10:14;;;;;;;9.90;6.30;;;;;;;2.24;74.60;101859.62;105407;277;39622;-73
2023/05/09 02:12:48;;;;;;;12.10;7.30;;;;;;;2.20;74.67;101855.91;105523;277;174878;-72
2023/05/09 02:15:28;;;;;;;9.50;6.80;;;;;;;2.16;74.44;101853.43;105630;277;38961;-72
2023/05/09 02:18:04;;;;;;;8.20;6.20;;;;;;;2.04;74.46;101857.16;105359;277;38479;-72
2023/05/09 02:20:41;;;;;;;11.30;6.80;;;;;;;1.98;74.68;101856.50;105657;277;38776;-73
2023/05/09 02:23:21;;;;;;;9.30;6.40;;;;;;;1.96;74.72;101855.79;106046;277;39357;-73
2023/05/09 02:25:58;;;;;;;10.80;6.80;;;;;;;1.92;74.80;101860.01;105609;277;39082;-73
2023/05/09 02:28:35;;;;;;;10.50;6.60;;;;;;;1.91;75.03;101859.13;105388;277;38356;-73
2023/05/09 02:31:12;;;;;;;10.30;6.50;;;;;;;1.88;75.13;101858.52;105657;277;38629;-73
2023/05/09 02:33:50;;;;;;;10.10;7.20;;;;;;;1.86;75.21;101859.53;105661;277;38362;-73
2023/05/09 02:36:38;;;;;;;10.10;7.20;;;;;;;1.83;75.31;101858.77;105406;278;38230;-73
2023/05/09 02:39:22;;;;;;;10.90;6.40;;;;;;;1.79;75.33;101857.83;105669;277;38632;-73
2023/05/09 02:42:08;;;;;;;11.60;6.30;;;;;;;1.80;75.54;101857.33;105648;277;40121;-72
2023/05/09 02:44:43;;;;;;;9.50;6.70;;;;;;;1.81;75.53;101859.25;105669;277;39676;-72
2023/05/09 02:47:20;;;;;;;10.10;7.30;;;;;;;1.79;75.43;101859.56;105390;279;38834;-72
2023/05/09 02:49:59;;;;;;;10.60;7.40;;;;;;;1.75;75.24;101862.73;105539;277;188783;-72
2023/05/09 02:52:38;;;;;;;10.20;7.30;;;;;;;1.70;75.43;101863.46;106040;277;38847;-72
2023/05/09 02:55:20;;;;;;;11.10;6.80;;;;;;;1.64;75.63;101858.52;106078;277;39161;-72
2023/05/09 02:58:00;;;;;;;12.90;7.00;;;;;;;1.61;75.89;101859.66;105642;277;38237;-73
2023/05/09 03:00:36;;;;;;;11.30;6.30;;;;;;;1.62;76.01;101856.77;105636;277;38383;-72
2023/05/09 03:03:12;;;;;;;9.50;7.40;;;;;;;1.68;76.15;101857.05;105618;277;38242;-72
2023/05/09 03:05:49;;;;;;;14.40;8.40;;;;;;;1.71;76.43;101860.91;105386;277;38366;-72
2023/05/09 03:08:31;;;;;;;10.10;7.80;;;;;;;1.72;76.59;101859.57;105676;277;38395;-73
2023/05/09 03:11:06;;;;;;;11.80;8.00;;;;;;;1.73;76.69;101855.64;105671;277;38236;-72
2023/05/09 03:13:45;;;;;;;12.10;8.00;;;;;;;1.76;76.81;101859.98;106052;277;40248;-72
2023/05/09 03:16:21;;;;;;;13.20;8.50;;;;;;;1.75;76.88;101864.81;105642;277;38196;-72
2023/05/09 03:18:59;;;;;;;12.10;8.00;;;;;;;1.80;76.94;101863.70;105630;277;38093;-72
2023/05/09 03:21:35;;;;;;;10.30;7.40;;;;;;;1.84;77.16;101860.36;106067;277;38242;-72
2023/05/09 03:24:15;;;;;;;12.00;8.40;;;;;;;1.90;77.34;101858.23;105599;277;39363;-72
2023/05/09 03:26:50;;;;;;;12.90;7.80;;;;;;;1.97;77.24;101862.53;105609;277;37993;-72
2023/05/09 03:29:27;;;;;;;12.10;8.40;;;;;;;1.97;77.33;101859.25;105422;278;39999;-72
2023/05/09 03:32:03;;;;;;;13.40;8.40;;;;;;;1.99;77.60;101856.71;105623;277;38380;-73
2023/05/09 03:34:45;;;;;;;10.80;8.20;;;;;;;2.05;77.64;101858.55;105414;277;39841;-73
2023/05/09 03:37:24;;;;;;;10.90;7.10;;;;;;;2.16;78.00;101860.33;105631;277;38529;-73
2023/05/09 03:40:02;;;;;;;13.00;8.10;;;;;;;2.41;78.35;101860.80;105630;277;38806;-73
2023/05/09 03:42:51;;;;;;;9.60;8.00;;;;;;;3.00;79.53;101860.84;105583;277;38229;-72
2023/05/09 03:45:31;;;;;;;11.20;7.70;;;;;;;3.66;79.25;101862.39;105673;277;38260;-72
2023/05/09 03:48:08;;;;;;;10.30;7.70;;;;;;;4.41;79.86;101859.54;105640;277;38262;-73
2023/05/09 03:50:42;;;;;;;10.00;7.50;;;;;;;5.31;81.34;101856.58;105682;277;39134;-73
2023/05/09 03:53:19;;;;;;;8.90;7.10;;;;;;;6.26;80.10;101857.30;105998;277;39191;-74
2023/05/09 03:55:53;;;;;;;12.10;8.20;;;;;;;7.33;79.17;101850.67;105664;277;38382;-73
2023/05/09 03:58:29;;;;;;;10.00;7.10;;;;;;;8.36;76.45;101848.48;105670;277;39418;-74
2023/05/09 04:01:03;;;;;;;11.10;7.70;;;;;;;9.30;73.40;101844.16;105674;277;39607;-74
2023/05/09 04:03:40;;;;;;;9.10;6.90;;;;;;;10.25;70.51;101839.64;105392;277;39014;-74
2023/05/09 04:06:16;;;;;;;9.20;7.00;;;;;;;11.09;66.83;101840.15;105594;277;39641;-74
2023/05/09 04:08:55;;;;;;;12.70;8.50;;;;;;;11.58;63.35;101841.73;105585;277;38249;-74
2023/05/09 04:11:31;;;;;;;11.90;7.60;;;;;;;11.27;60.54;101841.41;105516;277;174468;-74
2023/05/09 04:14:20;;;;;;;10.00;7.50;;;;;;;10.65;59.68;101842.23;105634;277;39662;-74
2023/05/09 04:16:54;;;;;;;9.50;7.30;;;;;;;10.01;60.00;101842.89;106057;277;39330;-74
2023/05/09 04:19:33;;;;;;;11.70;7.50;;;;;;;9.49;60.63;101843.64;105665;277;38242;-74
2023/05/09 04:22:12;;;;;;;11.70;7.80;;;;;;;9.05;61.25;101842.47;105699;277;39393;-74
2023/05/09 04:24:50;;;;;;;10.00;8.00;;;;;;;8.76;61.99;101843.21;105088;277;899277;-74
2023/05/09 04:27:28;;;;;;;11.60;7.50;;;;;;;8.53;62.88;101847.89;105377;277;40169;-73
2023/05/09 04:30:03;;;;;;;11.70;7.50;;;;;;;8.32;63.69;101851.80;105701;277;38401;-73
2023/05/09 04:32:47;;;;;;;10.80;7.50;;;;;;;8.19;64.51;101853.24;106031;277;39048;-74
2023/05/09 04:35:25;;;;;;;11.30;8.20;;;;;;;8.11;65.42;101854.32;105708;277;38394;-74
2023/05/09 04:38:03;;;;;;;10.90;8.50;;;;;;;8.08;65.85;101849.64;105582;277;174558;-73
2023/05/09 04:40:39;;;;;;;11.50;8.20;;;;;;;8.06;66.40;101848.27;105718;277;38968;-73
2023/05/09 04:43:13;;;;;;;11.10;7.80;;;;;;;8.11;66.79;101852.23;105681;277;39406;-73
2023/05/09 04:45:50;;;;;;;11.70;7.80;;;;;;;8.40;68.07;101852.64;106085;277;38225;-73
2023/05/09 04:48:25;;;;;;;9.80;7.10;;;;;;;9.41;70.52;101842.11;105631;277;38493;-73
2023/05/09 04:51:03;;;;;;;8.30;7.30;;;;;;;10.99;70.86;101842.38;105393;266;38239;-74
2023/05/09 04:53:43;;;;;;;11.60;8.50;;;;;;;12.57;65.74;101838.29;105399;277;39408;-74
2023/05/09 04:56:23;;;;;;;14.40;8.30;;;;;;;13.91;61.56;101839.09;105418;277;39671;-75
2023/05/09 04:59:00;;;;;;;11.90;8.10;;;;;;;15.34;56.69;101841.31;105648;277;38224;-75
2023/05/09 05:01:40;;;;;;;10.90;8.50;;;;;;;16.56;51.97;101835.60;105658;277;39600;-75
2023/05/09 05:04:16;;;;;;;13.10;8.30;;;;;;;17.62;48.03;101837.40;105651;277;38281;-75
2023/05/09 05:06:54;;;;;;;11.00;7.40;;;;;;;18.55;45.58;101835.41;106096;277;39293;-75
2023/05/09 05:09:29;;;;;;;11.00;7.50;;;;;;;19.34;42.53;101835.39;106107;277;39051;-75
2023/05/09 05:12:07;;;;;;;9.10;7.70;;;;;;;20.21;39.23;101832.71;105698;277;38391;-73
2023/05/09 05:14:44;;;;;;;8.80;7.30;;;;;;;20.92;37.71;101832.45;105654;278;38903;-73
2023/05/09 05:17:19;;;;;;;9.70;6.30;;;;;;;21.40;35.61;101835.14;105003;277;891389;-75
2023/05/09 05:20:00;;;;;;;7.20;6.20;;;;;;;21.76;32.41;101830.67;105656;277;38268;-75
2023/05/09 05:22:37;;;;;;;8.20;6.10;;;;;;;22.18;32.08;101830.38;106074;277;39425;-73
2023/05/09 05:25:16;;;;;;;6.60;5.50;;;;;;;22.46;31.54;101831.90;105646;277;39622;-73
2023/05/09 05:28:01;;;;;;;7.30;5.40;;;;;;;22.69;31.28;101828.86;105642;277;39520;-76
2023/05/09 05:30:35;;;;;;;7.30;5.40;;;;;;;23.01;30.92;101824.55;105654;277;38584;-73
2023/05/09 05:33:11;;;;;;;6.10;5.50;;;;;;;23.29;29.69;101831.25;106048;277;39465;-73
2023/05/09 05:35:45;;;;;;;6.50;5.00;;;;;;;23.84;28.61;101826.00;105647;265;38910;-73
2023/05/09 05:38:21;;;;;;;6.00;4.90;;;;;;;24.25;26.28;101822.84;105641;277;39946;-74
2023/05/09 05:40:56;;;;;;;6.60;5.20;;;;;;;24.52;26.28;101820.38;105660;277;39438;-76
2023/05/09 05:43:34;;;;;;;6.20;5.30;;;;;;;25.00;25.04;101819.09;106057;277;39023;-74
2023/05/09 05:46:10;;;;;;;5.40;4.80;;;;;;;25.32;24.82;101820.60;105670;277;38265;-74
2023/05/09 05:48:48;;;;;;;6.30;4.90;;;;;;;25.52;24.11;101816.33;105641;266;38120;-74
2023/05/09 05:51:23;;;;;;;6.10;5.10;;;;;;;25.94;23.46;101819.02;105650;277;38470;-74
2023/05/09 05:53:58;;;;;;;7.30;4.80;;;;;;;26.25;23.09;101812.59;105649;277;38260;-74
2023/05/09 05:56:33;;;;;;;8.20;4.80;;;;;;;26.48;22.72;101811.02;105690;277;38244;-75
2023/05/09 05:59:09;;;;;;;5.40;4.70;;;;;;;26.72;22.18;101816.89;104909;277;886955;-75
2023/05/09 06:01:46;;;;;;;6.70;4.20;;;;;;;26.94;22.09;101812.35;105416;278;38598;-74
2023/05/09 06:04:23;;;;;;;6.80;4.00;;;;;;;27.32;20.79;101813.70;105384;277;39635;-74
2023/05/09 06:06:57;;;;;;;5.50;4.00;;;;;;;27.77;20.79;101811.72;105648;277;39205;-75
2023/05/09 06:09:47;;;;;;;6.60;3.80;;;;;;;28.04;20.43;101810.75;105384;278;38603;-75
2023/05/09 06:12:29;;;;;;;3.90;3.50;;;;;;;28.30;20.05;101802.36;105657;277;38255;-75
2023/05/09 06:15:09;;;;;;;4.00;3.50;;;;;;;28.62;19.20;101805.73;106116;277;38386;-75
2023/05/09 06:17:48;;;;;;;5.90;3.40;;;;;;;28.77;18.56;101804.80;105381;278;39456;-74
2023/05/09 06:20:28;;;;;;;5.50;3.50;;;;;;;28.99;18.21;101805.16;105660;277;38362;-74
2023/05/09 06:23:08;;;;;;;4.70;3.10;;;;;;;29.24;17.89;101802.98;105629;277;38323;-77
2023/05/09 06:25:47;;;;;;;4.90;3.50;;;;;;;29.64;17.99;101804.77;105683;277;39043;-76
2023/05/09 06:28:23;;;;;;;4.40;2.90;;;;;;;29.84;17.03;101804.30;106074;277;38281;-75
2023/05/09 06:31:01;;;;;;;4.40;3.00;;;;;;;29.95;16.86;101812.16;105643;277;38215;-76
2023/05/09 06:33:37;;;;;;;5.20;2.70;;;;;;;30.04;16.01;101811.85;106073;275;38233;-75
2023/05/09 06:36:15;;;;;;;5.30;3.00;;;;;;;30.03;15.98;101808.34;105257;277;40320;-75
2023/05/09 06:38:52;;;;;;;;;;;;;;;29.95;15.14;101812.06;105392;277;39513;-75
2023/05/09 06:41:28;;;;;;;4.00;2.80;;;;;;;29.79;15.62;101807.21;105646;277;39298;-76
2023/05/09 06:44:07;;;;;;;5.40;3.20;;;;;;;29.89;15.52;101810.47;105645;277;39499;-76
2023/05/09 06:46:42;;;;;;;5.30;2.90;;;;;;;29.89;15.04;101811.73;106084;277;38495;-75
2023/05/09 06:49:17;;;;;;;3.40;2.80;;;;;;;29.70;15.43;101813.39;105634;277;39473;-75
2023/05/09 06:51:54;;;;;;;3.90;3.10;;;;;;;29.71;15.47;101809.64;105547;278;38228;-75
2023/05/09 06:54:30;;;;;;;3.70;2.80;;;;;;;29.69;15.26;101802.29;105611;277;38552;-75
2023/05/09 06:57:16;;;;;;;3.20;2.40;;;;;;;29.59;14.99;101801.48;105401;277;39403;-75
2023/05/09 06:59:51;;;;;;;3.60;2.70;;;;;;;29.47;15.37;101797.57;105670;277;38273;-75
2023/05/09 07:02:31;;;;;;;4.10;2.50;;;;;;;29.62;14.76;101793.63;105646;277;38263;-74
2023/05/09 07:05:10;;;;;;;3.00;2.70;;;;;;;29.53;14.90;101792.27;105609;277;38698;-74
2023/05/09 07:07:50;;;;;;;3.30;2.70;;;;;;;29.30;14.71;101790.52;105597;281;38248;-75
2023/05/09 07:10:26;;;;;;;;;;;;;;;29.07;15.18;101788.59;105659;277;38319;-76
2023/05/09 07:13:04;;;;;;;4.40;3.10;;;;;;;28.69;15.47;101788.33;105619;277;38571;-74
2023/05/09 07:15:40;;;;;;;4.20;3.20;;;;;;;28.83;15.86;101788.69;105632;277;38368;-74
2023/05/09 07:18:20;;;;;;;3.50;2.70;;;;;;;29.09;15.80;101788.38;105638;277;38303;-74
2023/05/09 07:20:59;;;;;;;3.10;2.80;;;;;;;29.43;15.31;101783.58;105627;277;39804;-75
2023/05/09 07:23:39;;;;;;;4.20;3.30;;;;;;;29.48;15.21;101783.40;105621;277;39834;-75
2023/05/09 07:26:15;;;;;;;3.90;2.70;;;;;;;29.62;15.01;101785.22;105626;277;38441;-74
2023/05/09 07:28:50;;;;;;;3.40;2.80;;;;;;;29.76;14.99;101780.73;106039;277;39429;-75
2023/05/09 07:31:27;;;;;;;2.70;2.50;;;;;;;29.77;14.69;101780.13;104992;277;881877;-73
2023/05/09 07:34:02;;;;;;;3.40;2.60;;;;;;;29.78;14.88;101777.65;105509;277;173291;-74
2023/05/09 07:36:43;;;;;;;5.50;2.80;;;;;;;29.91;14.77;101773.50;105392;277;39400;-76
2023/05/09 07:39:21;;;;;;;3.30;2.40;;;;;;;30.27;14.63;101765.11;105635;277;38281;-76
2023/05/09 07:42:00;;;;;;;;;;;;;;;30.51;14.38;101768.09;105684;277;38685;-75
2023/05/09 07:44:59;;;;;;;3.80;2.20;;;;;;;30.52;14.06;101758.23;106049;277;38230;-75
2023/05/09 07:47:36;;;;;;;4.00;3.10;;;;;;;30.61;13.81;101757.71;105690;277;39410;-79
2023/05/09 07:50:13;;;;;;;4.50;2.10;;;;;;;30.63;13.94;101757.86;105687;277;39476;-78
2023/05/09 07:52:57;;;;;;;3.40;2.30;;;;;;;30.78;12.99;101756.02;105408;277;38315;-78
2023/05/09 07:55:34;;;;;;;3.50;3.20;;;;;;;30.82;13.11;101751.33;105674;265;38238;-77
2023/05/09 07:58:13;;;;;;;4.70;2.60;;;;;;;30.79;13.21;101746.74;105397;277;38593;-77
2023/05/09 08:00:50;;;;;;;3.80;1.90;;;;;;;30.56;13.15;101751.52;105602;277;38227;-75
2023/05/09 08:03:28;;;;;;;1.80;1.60;;;;;;;30.46;13.56;101747.91;106012;277;39452;-75
2023/05/09 08:06:02;;;;;;;2.80;1.60;;;;;;;30.41;13.66;101749.69;105368;277;38227;-75
2023/05/09 08:08:39;;;;;;;4.00;1.60;;;;;;;30.54;13.29;101747.42;105629;277;39630;-74
2023/05/09 08:11:14;;;;;;;1.70;1.40;;;;;;;30.56;13.43;101749.80;105620;277;39644;-76
2023/05/09 08:13:58;;;;;;;2.50;2.10;;;;;;;30.63;13.46;101744.55;105407;277;38736;-77
2023/05/09 08:16:33;;;;;;;3.00;1.60;;;;;;;30.95;13.55;101736.48;105640;275;38402;-75
2023/05/09 08:19:10;;;;;;;1.80;1.50;;;;;;;31.31;13.27;101736.67;106022;277;38275;-76
2023/05/09 08:21:50;;;;;;;3.80;1.70;;;;;;;31.16;12.22;101739.10;105670;277;38230;-77
2023/05/09 08:24:28;;;;;;;1.90;1.60;;;;;;;30.95;12.24;101732.06;105645;277;38301;-76
2023/05/09 08:27:18;;;;;;;2.90;1.50;;;;;;;30.92;12.74;101735.45;105679;277;38268;-74
2023/05/09 08:29:55;;;;;;;2.00;1.50;;;;;;;31.13;12.89;101727.98;105686;277;38271;-76
2023/05/09 08:32:31;;;;;;;4.20;1.60;;;;;;;31.24;12.49;101729.80;105447;278;38419;-77
2023/05/09 08:35:08;;;;;;;5.10;1.80;;;;;;;31.22;12.17;101728.28;105734;277;38496;-79
2023/05/09 08:37:50;;;;;;;2.40;1.40;;;;;;;31.07;11.40;101724.71;105691;277;38544;-78
2023/05/09 08:40:30;;;;;;;2.30;1.70;;;;;;;30.79;12.23;101718.27;105556;265;170750;-79
2023/05/09 08:43:10;;;;;;;2.90;1.60;;;;;;;30.86;12.16;101723.11;105678;277;38504;-79
2023/05/09 08:45:51;;;;;;;2.60;1.70;;;;;;;30.88;11.91;101724.78;105688;277;39421;-73
2023/05/09 08:48:41;;;;;;;3.20;2.10;;;;;;;30.68;12.18;101711.11;105370;277;38393;-73
2023/05/09 08:51:19;;;;;;;1.80;1.50;;;;;;;30.86;12.47;101708.39;105655;277;38889;-76
2023/05/09 08:53:58;;;;;;;2.40;1.80;;;;;;;30.91;11.77;101703.15;105672;277;38383;-75
2023/05/09 08:56:34;;;;;;;3.10;1.60;;;;;;;30.59;11.41;101704.27;105642;277;38323;-73
2023/05/09 08:59:12;;;;;;;4.00;1.70;;;;;;;30.22;12.05;101701.41;105384;277;39418;-76
2023/05/09 09:05:17;;;;;;;2.00;1.50;;;;;;;30.29;12.36;101691.14;105679;275;38360;-74
2023/05/09 09:07:57;;;;;;;2.60;1.60;;;;;;;30.34;11.56;101685.05;105787;275;38437;-74
2023/05/09 09:10:32;;;;;;;3.40;2.00;;;;;;;30.27;11.99;101687.55;105708;275;173270;-75
2023/05/09 09:13:09;;;;;;;4.00;2.00;;;;;;;29.97;12.02;101693.36;105826;276;38575;-75
2023/05/09 09:15:46;;;;;;;2.90;1.80;;;;;;;29.36;12.02;101697.95;105592;275;38836;-75
2023/05/09 09:18:28;;;;;;;3.40;1.70;;;;;;;28.48;12.46;101699.77;105781;275;38521;-75
2023/05/09 09:21:07;;;;;;;2.60;1.80;;;;;;;27.81;13.13;101692.77;105592;275;38281;-74
2023/05/09 09:23:54;;;;;;;2.50;1.60;;;;;;;27.30;13.79;101691.77;106196;275;38821;-73
2023/05/09 09:26:30;;;;;;;3.70;2.00;;;;;;;26.96;14.13;101684.86;105798;275;39442;-75
2023/05/09 09:29:06;;;;;;;3.50;1.40;;;;;;;26.82;14.84;101678.91;105588;275;38455;-75
2023/05/09 09:31:46;;;;;;;4.20;1.70;;;;;;;26.61;14.36;101677.67;105799;275;38629;-75
2023/05/09 09:34:25;;;;;;;2.50;1.70;;;;;;;26.00;14.38;101687.95;106243;275;38591;-75
2023/05/09 09:37:01;;;;;;;3.40;1.50;;;;;;;25.34;14.95;101691.33;104753;275;1417309;-74
2023/05/09 09:39:36;;;;;;;2.80;1.70;;;;;;;24.85;15.52;101682.78;105811;275;38701;-75
2023/05/09 09:42:17;;;;;;;2.60;1.60;;;;;;;24.71;15.39;101671.91;105782;275;39390;-73
2023/05/09 09:45:07;;;;;;;3.10;1.70;;;;;;;24.44;15.71;101679.89;105801;275;39650;-73
2023/05/09 09:47:44;;;;;;;2.80;1.80;;;;;;;24.25;16.02;101673.41;105777;275;38533;-75
2023/05/09 09:50:24;;;;;;;1.90;1.60;;;;;;;24.10;16.12;101671.14;106240;275;38536;-74
2023/05/09 09:53:01;;;;;;;2.60;1.80;;;;;;;23.98;16.21;101678.32;105662;276;173843;-74
2023/05/09 09:55:38;;;;;;;2.60;1.40;;;;;;;23.58;15.76;101681.23;105816;275;39645;-73
2023/05/09 09:58:26;;;;;;;2.50;1.80;;;;;;;23.16;16.22;101676.70;105796;275;39639;-74
2023/05/09 10:01:12;;;;;;;2.70;1.70;;;;;;;22.99;16.84;101673.81;106209;275;38255;-73
2023/05/09 10:03:55;;;;;;;1.90;1.50;;;;;;;22.79;16.61;101668.79;105753;275;39473;-76
2023/05/09 10:06:34;;;;;;;1.70;1.50;;;;;;;22.53;17.09;101672.30;106160;275;38256;-74
2023/05/09 10:09:11;;;;;;;2.50;1.50;;;;;;;22.38;16.80;101670.46;105810;275;38263;-73
2023/05/09 10:12:09;;;;;;;2.30;1.70;;;;;;;22.20;17.08;101661.38;105679;275;173901;-75
2023/05/09 10:14:46;;;;;;;3.90;1.80;;;;;;;22.08;16.86;101653.95;105775;275;38571;-75
2023/05/09 10:17:26;;;;;;;1.90;1.50;;;;;;;21.98;17.14;101654.29;105809;275;39410;-74
2023/05/09 10:20:07;;;;;;;3.10;1.90;;;;;;;22.03;17.73;101648.58;105562;276;38249;-73
2023/05/09 10:22:43;;;;;;;2.70;1.50;;;;;;;21.99;17.86;101652.63;105807;276;38231;-73
2023/05/09 10:25:22;;;;;;;3.50;1.90;;;;;;;21.81;17.82;101651.31;105796;275;38542;-74
2023/05/09 10:28:00;;;;;;;2.90;1.30;;;;;;;21.66;17.92;101649.02;105813;276;39907;-75
2023/05/09 10:30:45;;;;;;;3.30;1.70;;;;;;;21.44;17.98;101651.52;106251;275;38440;-74
2023/05/09 10:33:22;;;;;;;3.60;1.80;;;;;;;21.24;18.09;101656.14;105811;275;40103;-74
2023/05/09 10:35:57;;;;;;;2.40;1.60;;;;;;;20.98;17.59;101645.66;105566;277;39401;-75
2023/05/09 10:38:34;;;;;;;3.30;1.50;;;;;;;20.80;18.18;101648.50;105831;275;38581;-75
2023/05/09 10:41:09;;;;;;;2.00;1.60;;;;;;;20.68;18.63;101648.00;106247;275;39471;-75
2023/05/09 10:43:45;;;;;;;2.20;1.80;;;;;;;20.60;18.70;101644.23;105815;275;38746;-75
2023/05/09 10:46:19;;;;;;;2.00;1.80;;;;;;;20.47;18.94;101636.86;105820;275;38227;-75
2023/05/09 10:48:58;;;;;;;2.30;1.70;;;;;;;20.37;19.33;101635.84;105527;276;40029;-75
2023/05/09 10:51:35;;;;;;;4.70;1.90;;;;;;;20.30;19.30;101629.14;105807;275;38417;-74
2023/05/09 10:54:28;;;;;;;4.50;1.70;;;;;;;20.20;20.02;101627.96;105792;275;38519;-74
2023/05/09 10:57:04;;;;;;;2.00;1.60;;;;;;;20.17;20.03;101628.48;105714;275;173953;-74
2023/05/09 10:59:42;;;;;;;3.40;1.70;;;;;;;20.19;20.18;101624.29;105476;276;173929;-75
2023/05/09 11:02:23;;;;;;;4.20;1.80;;;;;;;20.19;19.79;101618.11;106215;275;39988;-76
2023/05/09 11:05:25;;;;;;;3.10;1.70;;;;;;;20.17;20.17;101609.73;105495;277;39228;-75
2023/05/09 11:08:26;;;;;;;2.20;1.90;;;;;;;20.08;20.05;101607.42;106148;276;38916;-73
2023/05/09 11:11:11;;;;;;;2.60;1.60;;;;;;;19.95;20.51;101608.14;105702;276;38459;-73
2023/05/09 11:13:50;;;;;;;2.70;1.90;;;;;;;19.92;20.35;101608.73;105725;276;38625;-73
2023/05/09 11:16:30;;;;;;;2.20;1.60;;;;;;;19.78;19.96;101592.15;105703;276;38227;-75
2023/05/09 11:19:06;;;;;;;4.00;1.70;;;;;;;19.68;20.49;101588.98;106183;276;38444;-76
2023/05/09 11:21:46;;;;;;;4.60;1.80;;;;;;;19.71;20.80;101586.00;105691;276;39459;-73
2023/05/09 11:24:24;;;;;;;2.80;1.60;;;;;;;19.74;20.75;101585.45;105706;276;38940;-74
2023/05/09 11:26:59;;;;;;;3.90;1.80;;;;;;;19.69;20.25;101586.09;106164;276;38640;-74
2023/05/09 11:29:45;;;;;;;1.70;1.60;;;;;;;19.55;20.17;101584.55;105692;276;39051;-74
2023/05/09 11:32:20;;;;;;;3.30;1.70;;;;;;;19.50;20.49;101582.55;105699;276;39745;-74
2023/05/09 11:35:09;;;;;;;2.50;1.60;;;;;;;19.34;20.37;101572.96;105735;276;39502;-74
2023/05/09 11:37:53;;;;;;;4.20;1.70;;;;;;;19.22;20.67;101568.50;105685;276;38233;-73
2023/05/09 11:40:28;;;;;;;2.40;1.70;;;;;;;19.15;20.54;101566.81;105702;276;38284;-72
2023/05/09 11:43:11;;;;;;;3.40;1.80;;;;;;;19.08;20.46;101552.85;105500;276;39415;-73
2023/05/09 11:45:49;;;;;;;3.40;1.60;;;;;;;18.98;20.57;101548.25;105683;276;39385;-72
2023/05/09 11:48:26;;;;;;;2.30;1.60;;;;;;;18.84;20.96;101553.11;105711;276;38675;-73
2023/05/09 11:51:09;;;;;;;2.30;1.60;;;;;;;18.69;21.10;101539.75;105702;276;38275;-72
2023/05/09 11:53:52;;;;;;;1.60;1.50;;;;;;;18.63;21.31;101529.46;105618;276;38920;-72
2023/05/09 11:56:31;;;;;;;2.20;1.80;;;;;;;18.67;22.07;101529.59;105711;265;38254;-73
2023/05/09 11:59:07;;;;;;;4.10;1.90;;;;;;;18.76;22.31;101525.92;106141;277;38401;-73
2023/05/09 12:01:57;;;;;;;3.00;1.60;;;;;;;18.84;22.10;101522.89;105618;276;38739;-75
2023/05/09 12:04:45;;;;;;;5.10;1.60;;;;;;;18.79;21.88;101532.30;105697;276;38513;-74
2023/05/09 12:07:23;;;;;;;3.70;1.50;;;;;;;18.68;21.89;101522.61;105778;275;38311;-73
2023/05/09 12:10:01;;;;;;;2.80;1.80;;;;;;;18.67;22.12;101518.98;105806;276;38297;-73
2023/05/09 12:12:44;;;;;;;2.60;1.70;;;;;;;18.64;21.97;101518.42;106235;275;38276;-75
2023/05/09 12:15:20;;;;;;;2.60;1.40;;;;;;;18.59;22.30;101515.16;105560;276;38869;-73
2023/05/09 12:18:06;;;;;;;5.70;1.70;;;;;;;18.62;22.41;101511.99;106262;276;38838;-73
2023/05/09 12:20:50;;;;;;;3.50;1.50;;;;;;;18.66;22.44;101507.52;105598;276;39601;-74
2023/05/09 12:23:27;;;;;;;2.60;1.50;;;;;;;18.67;22.18;101509.60;105790;275;39380;-74
2023/05/09 12:26:02;;;;;;;2.50;1.80;;;;;;;18.55;22.19;101507.60;106231;275;40171;-73